Time;durP1;ratioP1;P1;durP2;ratioP2;P2;SDS_P1;SDS_P2;PMS_P1;PMS_P2;Temp;Humidity;BMP_temperature;BMP_pressure;BME280_temperature;BME280_humidity;BME280_pressure;Samples;Min_cycle;Max_cycle;Signal;HPM_P1;HPM_P2
2022/08/21 00:02:16;;;;;;;8.80;7.30;;;19.30;99.90;;;19.55;95.09;101044.56;5065811;28;20461;-69
2022/08/21 00:04:46;;;;;;;8.07;7.00;;;19.30;1.00;;;19.63;92.63;101057.81;5067060;28;20891;-69
2022/08/21 00:07:26;;;;;;;10.33;7.33;;;19.40;99.90;;;19.37;94.45;101059.38;5076149;28;20426;-70
2022/08/21 00:09:55;;;;;;;9.10;7.60;;;19.30;88.40;;;19.56;94.26;101057.16;5075125;28;20442;-70
2022/08/21 00:12:25;;;;;;;11.50;8.30;;;19.40;1.00;;;19.49;93.81;101054.63;5071153;28;20401;-70
2022/08/21 00:14:55;;;;;;;8.13;7.07;;;19.30;99.90;;;19.51;93.08;101060.69;5053713;28;20427;-70
2022/08/21 00:17:26;;;;;;;6.33;5.73;;;19.30;1.00;;;19.45;92.29;101053.50;5062723;28;20246;-70
2022/08/21 00:19:55;;;;;;;8.53;7.63;;;19.30;93.50;;;19.35;92.05;101061.56;5063235;28;20473;-70
2022/08/21 00:22:24;;;;;;;10.43;6.63;;;19.20;99.90;;;19.49;91.75;101060.13;5065721;28;20853;-71
2022/08/21 00:24:53;;;;;;;9.40;7.20;;;19.30;1.00;;;19.55;91.46;101044.56;5069419;28;20437;-70
2022/08/21 00:27:23;;;;;;;7.80;6.77;;;19.30;1.00;;;19.41;90.83;101049.56;5062181;28;21011;-71
2022/08/21 00:29:53;;;;;;;7.50;6.40;;;19.30;1.00;;;19.23;92.07;101046.31;5069856;28;20439;-69
2022/08/21 00:32:26;;;;;;;8.53;7.00;;;19.20;1.00;;;19.22;92.36;101045.47;5071784;28;20417;-71
2022/08/21 00:34:56;;;;;;;7.40;6.70;;;19.10;99.90;;;19.14;93.36;101050.59;5070066;28;20838;-71
2022/08/21 00:37:25;;;;;;;10.37;8.53;;;19.00;1.00;;;19.12;93.43;101050.88;5067474;28;20434;-71
2022/08/21 00:39:54;;;;;;;8.13;7.23;;;19.00;99.90;;;19.44;91.97;101049.09;5067850;28;20455;-70
2022/08/21 00:42:24;;;;;;;10.20;7.50;;;19.20;1.00;;;19.31;93.79;101054.13;5065959;28;20518;-70
2022/08/21 00:44:53;;;;;;;9.40;8.23;;;19.20;1.00;;;19.10;94.84;101058.50;5065253;28;20461;-70
2022/08/21 00:47:23;;;;;;;7.90;7.10;;;19.10;1.00;;;19.05;96.36;101056.53;5068755;28;20923;-70
2022/08/21 00:49:53;;;;;;;11.20;8.90;;;19.00;1.00;;;19.42;94.85;101062.19;5056248;28;20439;-70
2022/08/21 00:52:27;;;;;;;10.67;8.43;;;19.20;1.00;;;19.43;94.98;101063.84;5061607;28;20908;-70
2022/08/21 00:54:59;;;;;;;8.77;7.20;;;19.20;1.00;;;19.14;96.03;101054.16;5066393;28;20446;-70
2022/08/21 00:57:34;;;;;;;10.50;7.57;;;19.00;1.00;;;19.19;96.91;101051.50;5050418;28;21014;-70
2022/08/21 01:00:13;;;;;;;10.03;8.93;;;19.00;21.30;;;19.04;97.19;101048.53;5069942;28;20537;-70
2022/08/21 01:02:44;;;;;;;11.60;7.93;;;18.90;99.90;;;18.89;97.73;101051.91;5061567;28;20438;-70
2022/08/21 01:05:14;;;;;;;7.87;7.10;;;18.80;99.90;;;18.82;98.88;101044.97;5064415;28;20919;-70
2022/08/21 01:07:44;;;;;;;9.63;8.70;;;18.80;99.90;;;18.94;98.59;101051.16;5067166;28;20430;-71
2022/08/21 01:10:15;;;;;;;9.73;7.53;;;18.80;99.90;;;18.78;99.20;101052.03;5065524;28;20543;-71
2022/08/21 01:12:55;;;;;;;10.70;9.17;;;18.70;99.90;;;18.77;99.14;101053.94;5065780;28;20526;-71
2022/08/21 01:15:31;;;;;;;9.53;8.20;;;18.70;99.90;;;18.65;99.79;101053.22;5065770;28;20531;-70
2022/08/21 01:18:03;;;;;;;8.77;7.87;;;18.60;99.90;;;18.61;100.00;101050.16;5068801;28;20442;-70
2022/08/21 01:20:34;;;;;;;9.93;8.60;;;18.60;99.90;;;18.80;100.00;101052.59;5066751;28;20508;-69
2022/08/21 01:23:07;;;;;;;8.90;7.97;;;18.60;99.90;;;18.60;100.00;101053.13;5065748;28;20787;-70
2022/08/21 01:25:36;;;;;;;9.90;8.73;;;18.50;99.90;;;18.55;100.00;101051.16;5069416;28;20445;-70
2022/08/21 01:28:13;;;;;;;12.07;9.07;;;18.50;99.90;;;18.74;100.00;101048.94;5064598;28;20473;-71
2022/08/21 01:30:45;;;;;;;9.63;7.93;;;18.50;99.90;;;18.86;99.51;101046.94;5067080;28;20413;-69
2022/08/21 01:33:14;;;;;;;9.63;7.50;;;18.60;99.90;;;18.66;97.99;101052.97;5068010;28;20458;-71
2022/08/21 01:35:43;;;;;;;10.77;9.03;;;18.60;99.90;;;18.48;98.67;101046.91;5062050;28;20522;-69
2022/08/21 01:38:13;;;;;;;10.57;7.63;;;18.40;99.90;;;18.33;99.49;101047.50;5068965;28;20508;-69
2022/08/21 01:40:42;;;;;;;14.20;8.57;;;18.30;99.90;;;18.71;98.71;101059.59;5063948;28;20438;-70
2022/08/21 01:43:11;;;;;;;9.47;8.57;;;18.50;99.90;;;18.53;96.89;101053.31;5062361;28;20458;-69
2022/08/21 01:45:40;;;;;;;8.63;7.83;;;18.40;99.90;;;18.40;96.87;101050.03;5067976;28;20431;-71
2022/08/21 01:48:09;;;;;;;7.83;6.50;;;18.30;99.90;;;18.44;96.20;101054.78;5052512;28;21010;-70
2022/08/21 01:50:38;;;;;;;8.77;7.60;;;18.30;99.90;;;18.75;97.54;101053.34;5065412;28;20421;-70
2022/08/21 01:53:08;;;;;;;10.13;7.43;;;18.40;99.90;;;18.50;94.80;101050.19;5060986;28;20454;-70
2022/08/21 01:55:38;;;;;;;10.70;6.90;;;18.40;99.90;;;18.40;94.00;101052.78;5069939;28;20571;-69
2022/08/21 01:58:06;;;;;;;9.60;6.20;;;18.30;99.90;;;18.20;94.23;101053.31;5067323;28;20936;-69
2022/08/21 02:00:35;;;;;;;8.03;6.00;;;18.10;99.90;;;18.30;95.64;101058.13;5065065;28;20958;-69
2022/08/21 02:03:05;;;;;;;6.87;6.17;;;18.20;99.90;;;18.26;93.25;101063.25;5062625;28;20444;-69
2022/08/21 02:05:34;;;;;;;8.03;6.10;;;18.10;99.90;;;18.25;93.68;101056.94;5069100;28;20789;-71
2022/08/21 02:08:04;;;;;;;6.33;5.73;;;18.10;99.90;;;18.16;92.86;101052.13;5065353;28;20438;-70
2022/08/21 02:10:34;;;;;;;7.10;6.10;;;18.10;99.90;;;18.47;94.06;101047.97;5063516;28;20770;-70
2022/08/21 02:13:07;;;;;;;6.10;5.60;;;18.30;99.90;;;18.18;92.45;101061.75;5065888;28;20504;-70
2022/08/21 02:15:40;;;;;;;10.33;5.83;;;18.10;99.90;;;18.46;95.17;101069.06;5067107;28;20481;-70
2022/08/21 02:18:09;;;;;;;7.30;5.37;;;18.20;99.90;;;18.45;90.65;101052.84;5066045;28;20746;-70
2022/08/21 02:20:43;;;;;;;7.30;5.97;;;18.30;99.90;;;18.32;93.26;101055.94;5066924;28;20457;-70
2022/08/21 02:23:14;;;;;;;8.83;6.53;;;18.20;99.90;;;18.18;92.24;101055.44;5059713;28;20468;-70
2022/08/21 02:25:43;;;;;;;6.17;5.57;;;18.10;99.90;;;17.96;92.06;101057.28;5063185;28;20458;-70
2022/08/21 02:28:16;;;;;;;9.40;5.83;;;18.00;99.90;;;17.97;92.86;101057.00;5060338;28;20501;-70
2022/08/21 02:30:48;;;;;;;6.03;5.43;;;17.90;99.90;;;17.88;92.90;101066.69;5065375;28;20446;-70
2022/08/21 02:33:18;;;;;;;7.03;5.77;;;17.80;99.90;;;17.85;92.94;101055.41;5062372;28;20458;-70
2022/08/21 02:35:49;;;;;;;8.20;6.60;;;17.80;99.90;;;17.83;93.49;101063.88;5068808;28;20500;-70
2022/08/21 02:38:23;;;;;;;6.83;5.50;;;17.80;99.90;;;17.88;94.32;101065.88;5064104;28;20530;-71
2022/08/21 02:40:54;;;;;;;6.53;5.53;;;17.80;99.90;;;18.11;92.22;101060.25;5068792;28;20438;-71
2022/08/21 02:43:28;;;;;;;6.30;5.13;;;17.90;99.90;;;17.86;92.45;101051.59;5067871;28;20665;-71
2022/08/21 02:45:59;;;;;;;5.80;5.30;;;17.80;99.90;;;17.84;93.03;101053.75;5069437;28;20430;-70
2022/08/21 02:48:31;;;;;;;7.50;4.60;;;17.80;99.90;;;17.73;92.43;101058.19;5069001;28;20464;-70
2022/08/21 02:51:05;;;;;;;14.13;9.50;;;17.70;99.90;;;17.66;94.01;101057.53;5064415;28;20430;-70
2022/08/21 02:53:35;;;;;;;4.97;4.53;;;17.60;99.90;;;17.52;93.52;101051.50;5070140;28;20473;-70
2022/08/21 02:56:08;;;;;;;8.43;6.67;;;17.50;99.90;;;17.52;93.16;101051.50;5064463;28;20497;-70
2022/08/21 02:58:43;;;;;;;7.33;5.73;;;17.40;99.90;;;17.41;93.28;101048.78;5060570;28;20511;-70
2022/08/21 03:01:13;;;;;;;6.63;5.03;;;17.40;99.90;;;17.57;93.03;101054.31;5067273;28;20438;-70
2022/08/21 03:03:46;;;;;;;6.87;5.73;;;17.50;99.90;;;17.59;92.86;101062.31;5050232;28;20619;-69
2022/08/21 03:06:17;;;;;;;6.20;5.43;;;17.50;99.90;;;17.64;94.23;101055.03;5066998;28;20442;-69
2022/08/21 03:08:47;;;;;;;6.10;5.50;;;17.50;99.90;;;17.79;90.61;101063.53;5048967;28;20461;-69
2022/08/21 03:11:17;;;;;;;5.93;5.30;;;17.60;99.90;;;17.70;91.61;101058.69;5049628;28;20476;-69
2022/08/21 03:13:47;;;;;;;7.37;5.50;;;17.60;99.90;;;17.81;90.01;101063.31;5067254;28;20504;-69
2022/08/21 03:16:16;;;;;;;8.67;4.73;;;17.70;99.90;;;17.49;91.56;101051.13;5063106;28;20656;-69
2022/08/21 03:18:45;;;;;;;6.50;5.10;;;17.50;99.90;;;17.61;94.05;101051.97;5066402;28;20912;-70
2022/08/21 03:21:14;;;;;;;5.87;5.27;;;17.50;99.90;;;17.47;94.14;101054.13;5066626;28;20454;-70
2022/08/21 03:23:43;;;;;;;5.97;5.37;;;17.40;99.90;;;17.51;94.07;101047.09;5066091;28;20486;-70
2022/08/21 03:26:12;;;;;;;6.30;5.40;;;17.40;99.90;;;17.79;92.23;101060.78;5062443;28;20427;-70
2022/08/21 03:28:41;;;;;;;6.00;5.40;;;17.60;99.90;;;17.49;90.29;101051.97;5061588;28;20924;-70
2022/08/21 03:31:11;;;;;;;5.80;5.20;;;17.40;99.90;;;17.52;91.32;101054.25;5061372;28;20846;-70
2022/08/21 03:33:40;;;;;;;6.97;5.07;;;17.50;99.90;;;18.06;93.40;101055.50;5062980;28;20459;-70
2022/08/21 03:36:10;;;;;;;4.93;4.43;;;17.70;99.90;;;17.75;87.97;101054.16;5065330;28;20500;-70
2022/08/21 03:38:39;;;;;;;10.77;5.30;;;17.60;99.90;;;17.54;89.19;101049.34;5063145;28;20517;-70
2022/08/21 03:41:08;;;;;;;5.13;4.60;;;17.50;99.90;;;17.62;91.29;101057.16;5069752;28;20443;-70
2022/08/21 03:43:38;;;;;;;5.30;4.33;;;17.50;99.90;;;17.44;88.84;101057.34;5073466;28;20440;-70
2022/08/21 03:46:08;;;;;;;5.53;4.40;;;17.40;99.90;;;17.33;89.49;101059.03;5080078;28;20438;-70
2022/08/21 03:48:41;;;;;;;7.20;4.13;;;17.30;99.90;;;17.27;89.61;101059.19;5075267;28;20963;-70
2022/08/21 03:51:10;;;;;;;5.10;3.30;;;17.30;99.90;;;17.08;90.70;101057.69;5077609;28;20502;-71
2022/08/21 03:53:38;;;;;;;5.10;4.47;;;17.10;99.90;;;17.06;90.01;101051.63;5062576;28;20843;-69
2022/08/21 03:56:08;;;;;;;7.27;4.33;;;17.00;99.90;;;17.11;90.50;101059.94;5059188;28;20607;-70
2022/08/21 03:58:38;;;;;;;9.70;4.20;;;17.00;99.90;;;17.06;90.04;101057.09;5070165;28;20450;-69
2022/08/21 04:01:08;;;;;;;4.87;4.37;;;17.00;99.90;;;17.02;89.72;101059.47;5067075;28;20441;-70
2022/08/21 04:03:39;;;;;;;5.57;4.53;;;16.90;99.90;;;17.04;90.71;101048.31;5069438;28;20485;-70
2022/08/21 04:06:09;;;;;;;6.30;4.33;;;16.90;99.90;;;17.01;89.29;101059.72;5059589;28;20431;-70
2022/08/21 04:08:38;;;;;;;4.53;4.03;;;16.90;99.90;;;16.98;88.63;101065.69;5063405;28;20444;-70
2022/08/21 04:11:07;;;;;;;4.60;4.10;;;16.90;99.90;;;17.15;89.31;101066.56;5063488;28;20489;-70
2022/08/21 04:13:36;;;;;;;5.40;3.40;;;17.00;99.90;;;17.18;87.38;101066.94;5067600;28;20507;-70
2022/08/21 04:16:13;;;;;;;9.03;3.40;;;17.00;99.90;;;17.04;88.41;101059.25;5061869;28;20528;-71
2022/08/21 04:18:43;;;;;;;6.27;3.83;;;17.00;99.90;;;16.91;87.95;101072.09;5066902;28;20576;-70
2022/08/21 04:21:13;;;;;;;5.53;4.50;;;16.90;99.90;;;16.99;88.08;101072.81;5063598;28;20449;-69
2022/08/21 04:23:42;;;;;;;4.70;3.83;;;16.90;99.90;;;16.90;87.75;101070.41;5070264;28;20561;-69
2022/08/21 04:26:11;;;;;;;5.90;3.47;;;16.80;99.90;;;17.11;89.20;101071.72;5071276;28;20484;-69
2022/08/21 04:28:40;;;;;;;7.83;3.90;;;16.90;99.90;;;17.27;88.66;101076.44;5065581;28;20416;-69
2022/08/21 04:31:12;;;;;;;4.70;3.73;;;17.00;99.90;;;17.55;87.24;101072.06;5068256;28;20468;-70
2022/08/21 04:33:40;;;;;;;4.37;3.70;;;17.30;99.90;;;17.16;86.26;101069.09;5048770;28;20496;-70
2022/08/21 04:36:12;;;;;;;3.80;3.40;;;17.10;99.90;;;16.94;87.25;101066.13;5062501;28;20465;-70
2022/08/21 04:38:41;;;;;;;7.53;4.30;;;16.90;99.90;;;17.29;86.48;101073.44;5068422;28;20446;-70
2022/08/21 04:41:12;;;;;;;6.87;4.23;;;17.10;99.90;;;17.29;85.88;101073.44;5059629;28;20461;-70
2022/08/21 04:43:41;;;;;;;5.53;4.30;;;17.10;99.90;;;17.17;88.38;101072.66;5067975;28;20967;-70
2022/08/21 04:46:10;;;;;;;8.73;3.60;;;17.00;99.90;;;17.29;87.51;101073.44;5059169;28;20521;-70
2022/08/21 04:48:41;;;;;;;7.17;5.07;;;17.10;99.90;;;17.27;85.35;101068.22;5065054;28;20423;-70
2022/08/21 04:51:17;;;;;;;7.53;3.67;;;17.20;99.90;;;17.12;86.16;101078.84;5071106;28;20445;-70
2022/08/21 04:53:51;;;;;;;6.73;5.53;;;17.00;99.90;;;17.58;86.32;101077.03;5067884;28;20465;-71
2022/08/21 04:56:25;;;;;;;8.00;4.90;;;17.30;99.90;;;17.60;83.83;101081.22;5078315;22;20506;-73
2022/08/21 04:58:58;;;;;;;5.93;4.00;;;17.40;99.90;;;17.22;86.57;101084.53;5052763;28;20469;-72
2022/08/21 05:01:31;;;;;;;11.57;5.03;;;17.20;99.90;;;16.96;86.21;101074.09;5039927;28;20466;-72
2022/08/21 05:04:04;;;;;;;6.90;3.97;;;17.00;99.90;;;17.69;86.81;101078.94;5036126;28;20775;-73
2022/08/21 05:06:40;;;;;;;6.07;3.03;;;17.30;99.90;;;17.54;82.80;101079.44;5039760;28;20410;-71
2022/08/21 05:09:13;;;;;;;6.43;4.50;;;17.30;99.90;;;17.27;84.92;101073.69;5067149;22;20455;-68
2022/08/21 05:11:43;;;;;;;3.40;3.20;;;17.20;99.90;;;17.16;84.89;101079.19;5024031;28;20434;-69
2022/08/21 05:14:13;;;;;;;7.20;3.50;;;17.10;99.90;;;17.11;85.18;101082.66;5029561;28;20432;-69
2022/08/21 05:16:43;;;;;;;7.80;3.20;;;17.00;99.90;;;17.21;84.14;101082.03;5023241;28;21051;-68
2022/08/21 05:19:12;;;;;;;4.50;3.17;;;17.10;99.90;;;17.47;86.85;101086.97;5030157;28;20427;-68
2022/08/21 05:21:45;;;;;;;5.63;3.70;;;17.20;99.90;;;17.32;82.62;101082.00;5026436;28;20436;-68
2022/08/21 05:24:14;;;;;;;4.70;2.83;;;17.20;99.90;;;17.37;82.60;101086.75;5023159;28;20886;-69
2022/08/21 05:26:43;;;;;;;4.90;3.50;;;17.20;99.90;;;17.26;82.19;101084.88;5023077;28;20410;-68
2022/08/21 05:29:15;;;;;;;5.80;2.90;;;17.20;99.90;;;17.28;81.95;101093.69;5019874;28;20941;-69
2022/08/21 05:31:44;;;;;;;3.20;2.83;;;17.20;99.90;;;17.37;82.19;101092.22;5018695;28;20441;-68
2022/08/21 05:34:14;;;;;;;3.20;2.43;;;17.20;99.90;;;17.16;82.04;101093.69;5021311;28;20460;-68
2022/08/21 05:36:46;;;;;;;3.43;2.40;;;17.10;99.90;;;17.25;83.69;101103.19;5021143;28;20848;-68
2022/08/21 05:39:15;;;;;;;5.00;2.53;;;17.10;99.90;;;17.34;82.09;101100.91;5017786;28;20412;-68
2022/08/21 05:41:44;;;;;;;3.87;3.27;;;17.20;99.90;;;17.61;81.91;101095.75;5021448;28;20448;-68
2022/08/21 05:44:13;;;;;;;3.70;3.00;;;17.30;99.90;;;17.72;81.73;101111.28;5022251;28;20472;-68
2022/08/21 05:46:42;;;;;;;5.87;2.70;;;17.50;99.90;;;17.55;81.04;101108.47;5020352;28;20454;-68
2022/08/21 05:49:12;;;;;;;4.00;2.77;;;17.40;99.90;;;17.48;80.31;101099.53;5003406;28;20453;-69
2022/08/21 05:51:42;;;;;;;4.90;3.37;;;17.40;99.90;;;17.58;81.28;101107.13;5027528;28;20443;-68
2022/08/21 05:54:12;;;;;;;5.43;3.00;;;17.40;99.90;;;17.58;80.04;101102.50;5008619;28;20530;-69
2022/08/21 05:56:44;;;;;;;7.50;4.10;;;17.50;99.90;;;17.69;79.82;101107.13;5020017;28;20443;-69
2022/08/21 05:59:13;;;;;;;7.83;4.10;;;17.50;99.90;;;17.73;81.22;101108.31;5024582;28;20514;-68
2022/08/21 06:01:41;;;;;;;6.80;3.50;;;17.50;99.90;;;17.76;79.69;101116.03;5022151;28;20531;-68
2022/08/21 06:04:10;;;;;;;3.90;3.00;;;17.60;99.90;;;17.62;79.83;101117.38;5027347;28;20445;-69
2022/08/21 06:06:40;;;;;;;2.90;2.20;;;17.60;99.90;;;17.86;79.75;101111.84;5033200;28;20429;-68
2022/08/21 06:09:08;;;;;;;8.70;3.60;;;17.60;99.90;;;17.76;80.03;101109.72;5028443;28;20509;-68
2022/08/21 06:11:39;;;;;;;4.23;3.40;;;17.60;99.90;;;17.75;78.94;101108.91;5022749;28;20486;-68
2022/08/21 06:14:08;;;;;;;10.83;2.60;;;17.60;99.90;;;17.67;80.07;101117.47;5023921;28;20820;-69
2022/08/21 06:16:37;;;;;;;5.13;2.90;;;17.50;99.90;;;17.75;79.75;101106.16;5021179;28;20786;-69
2022/08/21 06:19:05;;;;;;;6.30;4.13;;;17.50;99.90;;;17.74;79.22;101107.22;5022775;28;20415;-69
2022/08/21 06:21:34;;;;;;;3.23;2.73;;;17.50;99.90;;;17.76;79.28;101107.00;5025370;28;20464;-68
2022/08/21 06:24:04;;;;;;;5.60;3.87;;;17.60;99.90;;;17.95;78.20;101110.38;5019841;28;20486;-68
2022/08/21 06:26:33;;;;;;;6.40;3.07;;;17.70;99.90;;;17.92;79.25;101110.84;5023510;28;20533;-69
2022/08/21 06:29:03;;;;;;;18.87;4.47;;;17.70;99.90;;;18.11;78.06;101109.53;5026068;28;20436;-70
2022/08/21 06:31:32;;;;;;;5.37;3.00;;;17.80;99.90;;;17.99;78.12;101114.25;5021109;28;20446;-69
2022/08/21 06:34:01;;;;;;;6.67;3.30;;;17.80;99.90;;;18.08;77.59;101112.78;5027402;28;20479;-69
2022/08/21 06:36:30;;;;;;;9.43;3.30;;;17.90;99.90;;;18.21;78.20;101112.47;5003906;28;20503;-68
2022/08/21 06:38:59;;;;;;;11.37;4.10;;;18.00;99.90;;;18.16;78.32;101113.22;5022683;28;20431;-69
2022/08/21 06:41:28;;;;;;;9.63;3.20;;;18.00;99.90;;;18.22;77.34;101106.75;5014055;28;20441;-69
2022/08/21 06:43:58;;;;;;;6.40;3.90;;;18.00;99.90;;;18.33;77.29;101113.25;5019732;28;20448;-68
2022/08/21 06:46:33;;;;;;;7.87;3.27;;;18.10;99.90;;;18.50;76.64;101111.31;5026128;28;20447;-70
2022/08/21 06:49:02;;;;;;;7.27;3.70;;;18.20;99.90;;;18.41;76.83;101112.81;5019966;28;20707;-68
2022/08/21 06:51:33;;;;;;;7.07;3.83;;;18.20;99.90;;;18.69;76.18;101111.13;5025479;28;20440;-70
2022/08/21 06:54:02;;;;;;;13.13;4.20;;;18.40;99.90;;;18.67;75.78;101108.63;5025424;28;20442;-69
2022/08/21 06:56:31;;;;;;;4.90;2.93;;;18.40;99.90;;;18.49;76.52;101112.41;5029573;28;20464;-68
2022/08/21 06:59:00;;;;;;;12.77;4.37;;;18.40;99.90;;;18.60;76.24;101111.53;5027923;28;20454;-69
2022/08/21 07:01:30;;;;;;;4.50;2.80;;;18.40;99.90;;;18.98;74.43;101109.88;5024210;28;20441;-70
2022/08/21 07:03:59;;;;;;;14.10;4.10;;;18.60;99.90;;;19.12;74.68;101116.69;5021481;28;20447;-68
2022/08/21 07:06:28;;;;;;;6.40;3.53;;;18.80;99.90;;;19.27;73.04;101110.56;5004595;28;20459;-68
2022/08/21 07:09:02;;;;;;;9.80;3.20;;;19.00;99.90;;;19.24;73.19;101109.16;5022489;28;20446;-68
2022/08/21 07:11:31;;;;;;;7.27;3.20;;;19.00;99.90;;;19.34;73.55;101108.47;5026143;28;20946;-69
2022/08/21 07:14:09;;;;;;;5.17;2.77;;;19.00;99.90;;;19.70;71.38;101104.28;5020276;28;20445;-68
2022/08/21 07:16:50;;;;;;;10.33;2.33;;;19.30;99.90;;;19.78;70.18;101109.31;5024571;28;21059;-68
2022/08/21 07:19:19;;;;;;;11.77;6.13;;;19.50;99.90;;;19.87;69.87;101102.28;5020400;28;20519;-69
2022/08/21 07:21:49;;;;;;;5.07;3.50;;;19.60;99.90;;;19.50;71.09;101100.22;5017339;28;20756;-69
2022/08/21 07:24:17;;;;;;;5.33;2.90;;;19.40;99.90;;;19.52;70.56;101095.28;5015857;28;20481;-67
2022/08/21 07:26:46;;;;;;;3.13;2.43;;;19.30;99.90;;;19.61;68.96;101090.16;5015232;28;20777;-68
2022/08/21 07:29:15;;;;;;;2.27;2.07;;;19.40;99.90;;;19.99;68.44;101097.47;5019367;28;20452;-68
2022/08/21 07:31:44;;;;;;;5.43;2.27;;;19.60;99.90;;;20.32;66.85;101097.25;5025745;28;20417;-68
2022/08/21 07:34:15;;;;;;;3.73;2.33;;;19.90;99.90;;;20.54;64.93;101099.91;5020331;28;20851;-69
2022/08/21 07:36:44;;;;;;;6.07;2.87;;;20.10;99.90;;;21.01;62.99;101097.19;5022746;28;20854;-68
2022/08/21 07:39:13;;;;;;;4.57;2.30;;;20.40;99.90;;;20.72;61.99;101096.72;5020152;28;20448;-69
2022/08/21 07:41:42;;;;;;;5.57;2.07;;;20.40;94.80;;;20.58;62.00;101092.78;5021987;28;20435;-69
2022/08/21 07:44:11;;;;;;;3.07;1.60;;;20.40;92.80;;;20.77;61.75;101087.69;5016536;28;20945;-68
2022/08/21 07:46:40;;;;;;;5.37;1.83;;;20.40;93.20;;;20.67;61.65;101095.88;5003188;28;20736;-69
2022/08/21 07:49:09;;;;;;;6.10;3.20;;;20.40;91.50;;;20.76;60.85;101095.13;5020407;28;21417;-68
2022/08/21 07:51:39;;;;;;;4.43;1.80;;;20.40;90.50;;;20.70;60.68;101096.19;5018056;28;20440;-69
2022/08/21 07:54:08;;;;;;;2.97;1.63;;;20.50;85.80;;;20.97;60.21;101104.31;5019916;28;20432;-68
2022/08/21 07:56:45;;;;;;;2.97;1.57;;;20.60;87.10;;;21.14;59.76;101101.44;5017976;28;20436;-68
2022/08/21 07:59:14;;;;;;;3.10;1.93;;;20.70;81.80;;;21.20;58.47;101095.66;5022678;28;20535;-68
2022/08/21 08:01:43;;;;;;;3.37;2.03;;;20.90;73.80;;;20.97;58.97;101096.06;5022236;28;20771;-69
2022/08/21 08:04:11;;;;;;;2.33;1.47;;;20.80;69.80;;;21.00;59.03;101098.31;5016133;28;20442;-68
2022/08/21 08:06:42;;;;;;;5.67;1.60;;;20.80;73.10;;;20.95;58.01;101105.69;5019380;28;21023;-69
2022/08/21 08:09:11;;;;;;;3.10;1.60;;;20.80;64.90;;;20.70;59.29;101095.34;5015800;28;20476;-68
2022/08/21 08:11:44;;;;;;;5.20;1.80;;;20.60;71.70;;;21.02;58.72;101098.00;5020533;28;21016;-69
2022/08/21 08:14:13;;;;;;;3.30;1.70;;;20.70;72.40;;;21.18;58.52;101097.88;5016455;28;20958;-68
2022/08/21 08:16:42;;;;;;;6.40;2.07;;;20.80;69.80;;;21.21;57.88;101094.56;5022973;28;20591;-69
2022/08/21 08:19:11;;;;;;;6.60;1.83;;;20.90;67.40;;;21.14;56.46;101099.50;5024449;28;20530;-68
2022/08/21 08:21:41;;;;;;;3.43;1.40;;;21.00;54.30;;;21.04;57.28;101101.34;5021837;28;20796;-69
2022/08/21 08:24:10;;;;;;;2.90;1.60;;;20.80;56.30;;;21.03;56.72;101091.41;5021604;28;20463;-68
2022/08/21 08:26:47;;;;;;;3.13;2.50;;;20.80;55.40;;;21.21;56.23;101097.31;5023145;28;20534;-68
2022/08/21 08:29:22;;;;;;;3.23;1.90;;;20.90;53.30;;;21.55;55.08;101096.91;5019170;28;20940;-69
2022/08/21 08:31:51;;;;;;;4.40;2.60;;;21.10;49.20;;;21.54;54.53;101089.78;5025150;28;20951;-69
2022/08/21 08:34:22;;;;;;;3.50;2.00;;;21.30;45.00;;;21.68;55.07;101096.44;5017324;28;20527;-69
2022/08/21 08:36:57;;;;;;;6.60;1.93;;;21.40;45.20;;;21.54;54.30;101096.09;5025867;28;20440;-68
2022/08/21 08:39:26;;;;;;;3.00;1.70;;;21.40;38.30;;;21.64;54.44;101106.31;5031351;28;20511;-68
2022/08/21 08:42:07;;;;;;;4.90;2.40;;;21.40;39.30;;;21.69;52.67;101109.09;5035182;28;20666;-68
2022/08/21 08:45:06;;;;;;;3.90;1.93;;;21.50;31.40;;;21.71;55.53;101106.91;5041744;28;20444;-68
2022/08/21 08:47:39;;;;;;;2.67;1.97;;;21.40;38.40;;;21.99;52.57;101098.19;5040885;28;20431;-69
2022/08/21 08:50:17;;;;;;;5.20;1.80;;;21.60;32.70;;;21.82;53.14;101103.09;5039488;28;20490;-68
2022/08/21 08:52:57;;;;;;;3.13;2.20;;;21.60;31.10;;;21.71;53.39;101101.38;5034477;28;20448;-69
2022/08/21 08:55:35;;;;;;;2.63;2.00;;;21.50;31.10;;;21.77;53.46;101097.56;5038705;28;20440;-67
2022/08/21 08:58:05;;;;;;;5.50;1.80;;;21.50;29.80;;;21.84;52.72;101092.59;5034058;28;20487;-67
2022/08/21 09:00:34;;;;;;;1.93;1.67;;;21.60;28.70;;;21.74;53.55;101084.31;5037889;28;20498;-68
2022/08/21 09:03:05;;;;;;;3.70;1.77;;;21.50;30.10;;;22.09;53.12;101087.16;5045244;28;20465;-69
2022/08/21 09:05:47;;;;;;;4.17;1.87;;;21.60;31.60;;;22.45;52.60;101076.16;5022335;28;20444;-68
2022/08/21 09:08:49;;;;;;;2.20;2.00;;;21.90;30.70;;;22.42;51.30;101094.06;5038934;28;20437;-69
2022/08/21 09:11:29;;;;;;;4.67;2.10;;;22.10;25.60;;;22.43;51.41;101097.66;5033865;28;20570;-67
2022/08/21 09:14:14;;;;;;;3.60;1.63;;;22.10;24.30;;;22.34;51.30;101099.31;5038874;28;20489;-69
2022/08/21 09:16:59;;;;;;;3.77;2.00;;;22.10;24.00;;;22.57;52.01;101104.28;5037360;28;20447;-69
2022/08/21 09:19:56;;;;;;;4.03;1.90;;;22.10;25.60;;;22.55;51.51;101100.97;5034645;28;20507;-71
2022/08/21 09:22:41;;;;;;;3.27;1.87;;;22.20;24.10;;;22.28;51.48;101092.97;5033277;28;20440;-72
2022/08/21 09:25:22;;;;;;;2.20;1.63;;;22.10;22.50;;;22.70;51.01;101089.97;5034067;28;20495;-71
2022/08/21 09:27:52;;;;;;;4.53;2.80;;;22.30;23.00;;;22.45;51.43;101090.78;5039354;28;20498;-72
2022/08/21 09:30:30;;;;;;;4.77;1.63;;;22.20;21.90;;;22.18;50.08;101090.22;5028049;28;20948;-71
2022/08/21 09:32:59;;;;;;;2.50;1.63;;;22.10;18.80;;;22.08;50.61;101088.25;5043355;28;20448;-71
2022/08/21 09:35:29;;;;;;;1.90;1.57;;;22.00;18.90;;;22.28;50.09;101081.94;5045623;28;20440;-72
2022/08/21 09:38:02;;;;;;;5.37;1.67;;;22.00;18.20;;;22.29;49.60;101082.78;5043901;28;20467;-72
2022/08/21 09:40:41;;;;;;;1.80;1.47;;;22.00;17.10;;;22.24;49.23;101082.78;5048245;28;20528;-72
2022/08/21 09:43:21;;;;;;;4.43;1.43;;;21.90;16.10;;;22.55;49.05;101078.91;5044135;28;20460;-72
2022/08/21 09:46:05;;;;;;;3.30;1.60;;;22.20;16.30;;;22.61;48.81;101083.31;5030475;28;20445;-72
2022/08/21 09:48:47;;;;;;;3.90;1.70;;;22.30;15.30;;;22.84;48.90;101077.25;5020938;28;20938;-72
2022/08/21 09:51:19;;;;;;;5.63;2.17;;;22.40;15.90;;;23.06;49.40;101078.84;5026660;28;20801;-72
2022/08/21 09:53:53;;;;;;;2.50;1.90;;;22.60;16.50;;;22.81;49.74;101083.31;5018505;28;20437;-72
2022/08/21 09:59:30;;;;;;;7.57;2.10;;;22.80;16.50;;;23.38;49.08;101090.34;5020906;28;20469;-72
2022/08/21 10:02:28;;;;;;;6.43;2.00;;;23.00;16.20;;;22.68;48.69;101088.56;5015464;28;20500;-72
2022/08/21 10:05:01;;;;;;;5.00;1.47;;;22.70;13.30;;;22.39;48.93;101091.03;5016288;28;20457;-72
2022/08/21 10:07:33;;;;;;;2.50;1.50;;;22.30;13.10;;;22.42;48.52;101096.81;5022682;28;20452;-72
2022/08/21 10:10:08;;;;;;;3.70;2.13;;;22.30;12.70;;;22.71;48.71;101080.56;5027201;28;20533;-72
2022/08/21 10:12:53;;;;;;;2.70;1.83;;;22.30;13.70;;;23.28;46.31;101087.63;5023715;28;20476;-71
2022/08/21 10:15:40;;;;;;;5.53;2.03;;;22.70;10.60;;;23.49;47.00;101078.16;5023407;28;20970;-72
2022/08/21 10:18:21;;;;;;;2.30;1.20;;;22.90;11.30;;;23.25;47.41;101083.47;5017588;28;20563;-73
2022/08/21 10:21:03;;;;;;;2.70;1.53;;;23.00;11.10;;;23.34;47.63;101092.00;5024005;28;20523;-72
2022/08/21 10:23:52;;;;;;;5.33;2.00;;;23.00;10.50;;;23.29;46.93;101089.25;5020323;28;20774;-72
2022/08/21 10:26:38;;;;;;;2.97;1.37;;;23.00;9.40;;;22.88;47.08;101083.03;5021499;28;20428;-72
2022/08/21 10:29:24;;;;;;;2.50;1.90;;;22.70;8.50;;;23.04;46.52;101081.06;5022293;28;20428;-72
2022/08/21 10:32:09;;;;;;;4.23;1.67;;;22.70;7.80;;;23.32;45.20;101086.75;5020626;28;20552;-73
2022/08/21 10:35:08;;;;;;;3.80;1.57;;;22.90;6.60;;;23.59;45.31;101082.78;5016432;28;20436;-72
2022/08/21 10:37:55;;;;;;;4.90;1.73;;;23.10;6.50;;;23.92;45.75;101086.75;5018553;28;20486;-71